KLNK/LNK METAR and TAF weather

Enter ICAO airport designator
Station Type Date Time Source
KLNK METAR 2020/01/28 20:54 UTC NOAA

KLNK 282054Z AUTO 00000KT 10SM OVC010 M01/M04 A3009 RMK AO2 SLP202 T10061039 58019


Station Type Date Time Source
KLNK Decoded METAR 2020/01/28 20:54 UTC NOAA

LINCOLN MUNICIPAL AIRPORT, NE, United States (KLNK) 40-50N 96-46W 364M
Jan 28, 2020 - 03:54 PM EST / 2020.01.28 2054 UTC
Wind: Calm:0
Visibility: 10 mile(s):0
Sky conditions: overcast
Temperature: 30.9 F (-0.6 C)
Dew Point: 25.0 F (-3.9 C)
Relative Humidity: 78%
Pressure (altimeter): 30.09 in. Hg (1018 hPa)
Pressure tendency: 0.06 inches (1.9 hPa) lower than three hours ago
ob: KLNK 282054Z AUTO 00000KT 10SM OVC010 M01/M04 A3009 RMK AO2 SLP202 T10061039 58019
cycle: 21

Station Type Date Time Source
KLNK TAF 2020/01/28 18:24 UTC NOAA

TAF KLNK 281722Z 2818/2918 04003KT P6SM OVC008
TEMPO 2900/2902 3SM -SN BR OVC008
FM290200 02002KT 3SM -SN BR OVC008
TEMPO 2902/2905 1SM -SN BR OVC005
FM290800 VRB03KT 3SM BR OVC005
FM291600 VRB03KT 6SM BR OVC008

Example: see airport list